sensor_id;sensor_type;location;lat;lon;timestamp;temperature;humidity
10459;DHT22;5277;48.722;8.736;2023-04-15T00:00:45;3.70;99.90
10459;DHT22;5277;48.722;8.736;2023-04-15T00:03:11;3.60;99.90
10459;DHT22;5277;48.722;8.736;2023-04-15T00:05:36;3.50;99.90
10459;DHT22;5277;48.722;8.736;2023-04-15T00:08:02;3.50;99.90
10459;DHT22;5277;48.722;8.736;2023-04-15T00:10:28;3.50;99.90
10459;DHT22;5277;48.722;8.736;2023-04-15T00:12:54;3.50;99.90
10459;DHT22;5277;48.722;8.736;2023-04-15T00:15:19;3.50;99.90
10459;DHT22;5277;48.722;8.736;2023-04-15T00:17:45;3.50;99.90
10459;DHT22;5277;48.722;8.736;2023-04-15T00:20:11;3.50;99.90
10459;DHT22;5277;48.722;8.736;2023-04-15T00:22:37;3.50;99.90
10459;DHT22;5277;48.722;8.736;2023-04-15T00:25:02;3.50;99.90
10459;DHT22;5277;48.722;8.736;2023-04-15T00:27:28;3.50;99.90
10459;DHT22;5277;48.722;8.736;2023-04-15T00:29:54;3.40;99.90
10459;DHT22;5277;48.722;8.736;2023-04-15T00:32:20;3.40;99.90
10459;DHT22;5277;48.722;8.736;2023-04-15T00:34:46;3.40;99.90
10459;DHT22;5277;48.722;8.736;2023-04-15T00:37:12;3.40;99.90
10459;DHT22;5277;48.722;8.736;2023-04-15T00:39:37;3.30;99.90
10459;DHT22;5277;48.722;8.736;2023-04-15T00:42:04;3.30;99.90
10459;DHT22;5277;48.722;8.736;2023-04-15T00:44:31;3.40;99.90
10459;DHT22;5277;48.722;8.736;2023-04-15T00:46:58;3.30;99.90
10459;DHT22;5277;48.722;8.736;2023-04-15T00:49:24;3.20;99.90
10459;DHT22;5277;48.722;8.736;2023-04-15T00:51:51;3.20;99.90
10459;DHT22;5277;48.722;8.736;2023-04-15T00:54:17;3.20;99.90
10459;DHT22;5277;48.722;8.736;2023-04-15T00:56:42;3.10;99.90
10459;DHT22;5277;48.722;8.736;2023-04-15T00:59:08;3.20;99.90
10459;DHT22;5277;48.722;8.736;2023-04-15T01:01:35;3.10;99.90
10459;DHT22;5277;48.722;8.736;2023-04-15T01:04:01;3.00;99.90
10459;DHT22;5277;48.722;8.736;2023-04-15T01:06:27;3.10;99.90
10459;DHT22;5277;48.722;8.736;2023-04-15T01:08:54;3.10;99.90
10459;DHT22;5277;48.722;8.736;2023-04-15T01:11:20;3.00;99.90
10459;DHT22;5277;48.722;8.736;2023-04-15T01:13:46;3.10;99.90
10459;DHT22;5277;48.722;8.736;2023-04-15T01:16:13;3.00;99.90
10459;DHT22;5277;48.722;8.736;2023-04-15T01:18:39;3.00;99.90
10459;DHT22;5277;48.722;8.736;2023-04-15T01:21:05;3.00;99.90
10459;DHT22;5277;48.722;8.736;2023-04-15T01:23:32;2.90;99.90
10459;DHT22;5277;48.722;8.736;2023-04-15T01:26:01;2.90;99.90
10459;DHT22;5277;48.722;8.736;2023-04-15T01:28:26;2.90;99.90
10459;DHT22;5277;48.722;8.736;2023-04-15T01:31:10;2.90;99.90
10459;DHT22;5277;48.722;8.736;2023-04-15T01:33:37;2.90;99.90
10459;DHT22;5277;48.722;8.736;2023-04-15T01:36:04;2.90;99.90
10459;DHT22;5277;48.722;8.736;2023-04-15T01:38:31;2.90;99.90
10459;DHT22;5277;48.722;8.736;2023-04-15T01:40:57;2.80;99.90
10459;DHT22;5277;48.722;8.736;2023-04-15T01:43:27;2.80;99.90
10459;DHT22;5277;48.722;8.736;2023-04-15T01:45:54;2.90;99.90
10459;DHT22;5277;48.722;8.736;2023-04-15T01:48:21;2.90;99.90
10459;DHT22;5277;48.722;8.736;2023-04-15T01:50:46;2.90;99.90
10459;DHT22;5277;48.722;8.736;2023-04-15T01:53:12;2.90;99.90
10459;DHT22;5277;48.722;8.736;2023-04-15T01:55:38;2.90;99.90
10459;DHT22;5277;48.722;8.736;2023-04-15T01:58:03;2.90;99.90
10459;DHT22;5277;48.722;8.736;2023-04-15T02:00:29;2.90;99.90
10459;DHT22;5277;48.722;8.736;2023-04-15T02:02:56;2.90;99.90
10459;DHT22;5277;48.722;8.736;2023-04-15T02:05:23;2.90;99.90
10459;DHT22;5277;48.722;8.736;2023-04-15T02:07:49;2.90;99.90
10459;DHT22;5277;48.722;8.736;2023-04-15T02:10:15;2.90;99.90
10459;DHT22;5277;48.722;8.736;2023-04-15T02:12:41;2.90;99.90
10459;DHT22;5277;48.722;8.736;2023-04-15T02:15:07;2.80;99.90
10459;DHT22;5277;48.722;8.736;2023-04-15T02:17:34;2.80;99.90
10459;DHT22;5277;48.722;8.736;2023-04-15T02:20:00;2.80;99.90
10459;DHT22;5277;48.722;8.736;2023-04-15T02:22:26;2.80;99.90
10459;DHT22;5277;48.722;8.736;2023-04-15T02:24:52;2.70;99.90
10459;DHT22;5277;48.722;8.736;2023-04-15T02:27:18;2.70;99.90
10459;DHT22;5277;48.722;8.736;2023-04-15T02:29:44;2.70;99.90
10459;DHT22;5277;48.722;8.736;2023-04-15T02:32:11;2.70;99.90
10459;DHT22;5277;48.722;8.736;2023-04-15T02:34:38;2.70;99.90
10459;DHT22;5277;48.722;8.736;2023-04-15T02:37:06;2.70;99.90
10459;DHT22;5277;48.722;8.736;2023-04-15T02:39:32;2.60;99.90
10459;DHT22;5277;48.722;8.736;2023-04-15T02:41:58;2.70;99.90
10459;DHT22;5277;48.722;8.736;2023-04-15T02:44:25;2.70;99.90
10459;DHT22;5277;48.722;8.736;2023-04-15T02:46:52;2.60;99.90
10459;DHT22;5277;48.722;8.736;2023-04-15T02:49:19;2.50;99.90
10459;DHT22;5277;48.722;8.736;2023-04-15T02:51:45;2.40;99.90
10459;DHT22;5277;48.722;8.736;2023-04-15T02:54:23;2.40;99.90
10459;DHT22;5277;48.722;8.736;2023-04-15T02:56:50;2.40;99.90
10459;DHT22;5277;48.722;8.736;2023-04-15T02:59:16;2.40;99.90
10459;DHT22;5277;48.722;8.736;2023-04-15T03:01:42;2.40;99.90
10459;DHT22;5277;48.722;8.736;2023-04-15T03:04:07;2.40;99.90
10459;DHT22;5277;48.722;8.736;2023-04-15T03:06:34;2.30;99.90
10459;DHT22;5277;48.722;8.736;2023-04-15T03:09:00;2.30;99.90
10459;DHT22;5277;48.722;8.736;2023-04-15T03:11:27;2.30;99.90
10459;DHT22;5277;48.722;8.736;2023-04-15T03:13:53;2.30;99.90
10459;DHT22;5277;48.722;8.736;2023-04-15T03:16:18;2.40;99.90
10459;DHT22;5277;48.722;8.736;2023-04-15T03:18:44;2.30;99.90
10459;DHT22;5277;48.722;8.736;2023-04-15T03:21:10;2.30;99.90
10459;DHT22;5277;48.722;8.736;2023-04-15T03:23:35;2.20;99.90
10459;DHT22;5277;48.722;8.736;2023-04-15T03:26:02;2.20;99.90
10459;DHT22;5277;48.722;8.736;2023-04-15T03:28:29;2.20;99.90
10459;DHT22;5277;48.722;8.736;2023-04-15T03:30:55;2.10;99.90
10459;DHT22;5277;48.722;8.736;2023-04-15T03:33:21;2.20;99.90
10459;DHT22;5277;48.722;8.736;2023-04-15T03:35:46;2.10;99.90
10459;DHT22;5277;48.722;8.736;2023-04-15T03:38:12;2.10;99.90
10459;DHT22;5277;48.722;8.736;2023-04-15T03:40:40;2.10;99.90
10459;DHT22;5277;48.722;8.736;2023-04-15T03:43:06;2.00;99.90
10459;DHT22;5277;48.722;8.736;2023-04-15T03:45:32;2.00;99.90
10459;DHT22;5277;48.722;8.736;2023-04-15T03:47:57;2.10;99.90
10459;DHT22;5277;48.722;8.736;2023-04-15T03:50:23;2.10;99.90
10459;DHT22;5277;48.722;8.736;2023-04-15T03:52:49;2.10;99.90
10459;DHT22;5277;48.722;8.736;2023-04-15T03:55:15;2.10;99.90
10459;DHT22;5277;48.722;8.736;2023-04-15T03:57:40;2.10;99.90
10459;DHT22;5277;48.722;8.736;2023-04-15T04:00:07;2.10;99.90
10459;DHT22;5277;48.722;8.736;2023-04-15T04:02:36;2.10;99.90
10459;DHT22;5277;48.722;8.736;2023-04-15T04:05:01;2.10;99.90
10459;DHT22;5277;48.722;8.736;2023-04-15T04:07:27;2.10;99.90
10459;DHT22;5277;48.722;8.736;2023-04-15T04:09:52;2.10;99.90
10459;DHT22;5277;48.722;8.736;2023-04-15T04:12:18;2.10;99.90
10459;DHT22;5277;48.722;8.736;2023-04-15T04:14:44;2.10;99.90
10459;DHT22;5277;48.722;8.736;2023-04-15T04:17:10;2.00;99.90
10459;DHT22;5277;48.722;8.736;2023-04-15T04:19:36;2.00;99.90
10459;DHT22;5277;48.722;8.736;2023-04-15T04:22:01;2.00;99.90
10459;DHT22;5277;48.722;8.736;2023-04-15T04:24:27;2.00;99.90
10459;DHT22;5277;48.722;8.736;2023-04-15T04:26:53;2.00;99.90
10459;DHT22;5277;48.722;8.736;2023-04-15T04:29:18;2.00;99.90
10459;DHT22;5277;48.722;8.736;2023-04-15T04:31:44;2.00;99.90
10459;DHT22;5277;48.722;8.736;2023-04-15T04:34:10;1.90;99.90
10459;DHT22;5277;48.722;8.736;2023-04-15T04:36:35;2.00;99.90
10459;DHT22;5277;48.722;8.736;2023-04-15T04:39:01;2.00;99.90
10459;DHT22;5277;48.722;8.736;2023-04-15T04:41:27;2.00;99.90
10459;DHT22;5277;48.722;8.736;2023-04-15T04:43:52;2.00;99.90
10459;DHT22;5277;48.722;8.736;2023-04-15T04:46:18;1.90;99.90
10459;DHT22;5277;48.722;8.736;2023-04-15T04:48:44;2.00;99.90
10459;DHT22;5277;48.722;8.736;2023-04-15T04:51:10;1.90;99.90
10459;DHT22;5277;48.722;8.736;2023-04-15T04:53:36;1.90;99.90
10459;DHT22;5277;48.722;8.736;2023-04-15T04:56:02;1.90;99.90
10459;DHT22;5277;48.722;8.736;2023-04-15T04:58:28;1.90;99.90
10459;DHT22;5277;48.722;8.736;2023-04-15T05:00:53;1.90;99.90
10459;DHT22;5277;48.722;8.736;2023-04-15T05:03:19;1.90;99.90
10459;DHT22;5277;48.722;8.736;2023-04-15T05:05:46;1.90;99.90
10459;DHT22;5277;48.722;8.736;2023-04-15T05:08:13;1.90;99.90
10459;DHT22;5277;48.722;8.736;2023-04-15T05:10:39;1.90;99.90
10459;DHT22;5277;48.722;8.736;2023-04-15T05:13:05;2.00;99.90
10459;DHT22;5277;48.722;8.736;2023-04-15T05:15:30;2.00;99.90
10459;DHT22;5277;48.722;8.736;2023-04-15T05:17:57;2.00;99.90
10459;DHT22;5277;48.722;8.736;2023-04-15T05:20:22;2.00;99.90
10459;DHT22;5277;48.722;8.736;2023-04-15T05:22:48;2.00;99.90
10459;DHT22;5277;48.722;8.736;2023-04-15T05:25:13;2.10;99.90
10459;DHT22;5277;48.722;8.736;2023-04-15T05:27:39;2.10;99.90
10459;DHT22;5277;48.722;8.736;2023-04-15T05:30:05;2.10;99.90
10459;DHT22;5277;48.722;8.736;2023-04-15T05:32:31;2.20;99.90
10459;DHT22;5277;48.722;8.736;2023-04-15T05:34:57;2.20;99.90
10459;DHT22;5277;48.722;8.736;2023-04-15T05:37:22;2.20;99.90
10459;DHT22;5277;48.722;8.736;2023-04-15T05:39:48;2.30;99.90
10459;DHT22;5277;48.722;8.736;2023-04-15T05:42:14;2.20;99.90
10459;DHT22;5277;48.722;8.736;2023-04-15T05:44:39;2.20;99.90
10459;DHT22;5277;48.722;8.736;2023-04-15T05:47:05;2.20;99.90
10459;DHT22;5277;48.722;8.736;2023-04-15T05:49:32;2.30;99.90
10459;DHT22;5277;48.722;8.736;2023-04-15T05:51:57;2.40;99.90
10459;DHT22;5277;48.722;8.736;2023-04-15T05:54:23;2.40;99.90
10459;DHT22;5277;48.722;8.736;2023-04-15T05:56:49;2.50;99.90
10459;DHT22;5277;48.722;8.736;2023-04-15T05:59:14;2.50;99.90
10459;DHT22;5277;48.722;8.736;2023-04-15T06:01:40;2.50;99.90
10459;DHT22;5277;48.722;8.736;2023-04-15T06:04:06;2.60;99.90
10459;DHT22;5277;48.722;8.736;2023-04-15T06:06:31;2.70;99.90
10459;DHT22;5277;48.722;8.736;2023-04-15T06:08:57;2.60;99.90
10459;DHT22;5277;48.722;8.736;2023-04-15T06:11:23;2.70;99.90
10459;DHT22;5277;48.722;8.736;2023-04-15T06:13:49;2.70;99.90
10459;DHT22;5277;48.722;8.736;2023-04-15T06:16:14;2.80;99.90
10459;DHT22;5277;48.722;8.736;2023-04-15T06:18:40;2.90;99.90
10459;DHT22;5277;48.722;8.736;2023-04-15T06:21:06;3.00;99.90
10459;DHT22;5277;48.722;8.736;2023-04-15T06:23:35;3.00;99.90
10459;DHT22;5277;48.722;8.736;2023-04-15T06:26:01;3.10;99.90
10459;DHT22;5277;48.722;8.736;2023-04-15T06:28:28;3.20;99.90
10459;DHT22;5277;48.722;8.736;2023-04-15T06:30:53;3.30;99.90
10459;DHT22;5277;48.722;8.736;2023-04-15T06:33:19;3.40;99.90
10459;DHT22;5277;48.722;8.736;2023-04-15T06:35:45;3.40;99.90
10459;DHT22;5277;48.722;8.736;2023-04-15T06:38:11;3.50;99.90
10459;DHT22;5277;48.722;8.736;2023-04-15T06:40:37;3.60;99.90
10459;DHT22;5277;48.722;8.736;2023-04-15T06:43:02;3.70;99.90
10459;DHT22;5277;48.722;8.736;2023-04-15T06:45:29;3.70;99.90
10459;DHT22;5277;48.722;8.736;2023-04-15T06:47:55;3.80;99.90
10459;DHT22;5277;48.722;8.736;2023-04-15T06:50:21;3.80;99.90
10459;DHT22;5277;48.722;8.736;2023-04-15T06:52:47;3.90;99.90
10459;DHT22;5277;48.722;8.736;2023-04-15T06:55:12;4.00;99.90
10459;DHT22;5277;48.722;8.736;2023-04-15T06:57:39;4.10;99.90
10459;DHT22;5277;48.722;8.736;2023-04-15T07:00:05;4.10;99.90
10459;DHT22;5277;48.722;8.736;2023-04-15T07:02:32;4.20;99.90
10459;DHT22;5277;48.722;8.736;2023-04-15T07:04:57;4.30;99.90
10459;DHT22;5277;48.722;8.736;2023-04-15T07:07:23;4.40;99.90
10459;DHT22;5277;48.722;8.736;2023-04-15T07:09:48;4.50;99.90
10459;DHT22;5277;48.722;8.736;2023-04-15T07:12:14;4.60;99.90
10459;DHT22;5277;48.722;8.736;2023-04-15T07:14:40;4.70;99.90
10459;DHT22;5277;48.722;8.736;2023-04-15T07:17:05;4.80;99.90
10459;DHT22;5277;48.722;8.736;2023-04-15T07:19:31;4.90;99.90
10459;DHT22;5277;48.722;8.736;2023-04-15T07:21:57;5.00;99.90
10459;DHT22;5277;48.722;8.736;2023-04-15T07:24:25;5.20;99.90
10459;DHT22;5277;48.722;8.736;2023-04-15T07:26:52;5.40;99.90
10459;DHT22;5277;48.722;8.736;2023-04-15T07:29:19;5.60;99.90
10459;DHT22;5277;48.722;8.736;2023-04-15T07:31:45;5.80;99.90
10459;DHT22;5277;48.722;8.736;2023-04-15T07:34:10;5.90;99.90
10459;DHT22;5277;48.722;8.736;2023-04-15T07:36:36;6.00;99.90
10459;DHT22;5277;48.722;8.736;2023-04-15T07:39:01;6.10;99.90
10459;DHT22;5277;48.722;8.736;2023-04-15T07:41:29;6.20;99.90
10459;DHT22;5277;48.722;8.736;2023-04-15T07:43:55;6.40;99.90
10459;DHT22;5277;48.722;8.736;2023-04-15T07:46:20;6.50;99.90
10459;DHT22;5277;48.722;8.736;2023-04-15T07:48:48;6.70;99.90
10459;DHT22;5277;48.722;8.736;2023-04-15T07:51:14;6.70;99.50
10459;DHT22;5277;48.722;8.736;2023-04-15T07:53:39;6.80;99.80
10459;DHT22;5277;48.722;8.736;2023-04-15T07:56:05;6.90;99.90
10459;DHT22;5277;48.722;8.736;2023-04-15T07:58:31;7.00;99.90
10459;DHT22;5277;48.722;8.736;2023-04-15T08:00:56;7.10;99.90
10459;DHT22;5277;48.722;8.736;2023-04-15T08:03:22;7.40;99.80
10459;DHT22;5277;48.722;8.736;2023-04-15T08:05:48;7.60;99.50
10459;DHT22;5277;48.722;8.736;2023-04-15T08:08:13;7.70;98.80
10459;DHT22;5277;48.722;8.736;2023-04-15T08:10:39;7.90;99.00
10459;DHT22;5277;48.722;8.736;2023-04-15T08:13:05;8.10;98.50
10459;DHT22;5277;48.722;8.736;2023-04-15T08:15:31;8.30;98.10
10459;DHT22;5277;48.722;8.736;2023-04-15T08:17:57;8.40;98.40
10459;DHT22;5277;48.722;8.736;2023-04-15T08:20:25;8.70;98.30
10459;DHT22;5277;48.722;8.736;2023-04-15T08:22:51;8.90;97.50
10459;DHT22;5277;48.722;8.736;2023-04-15T08:25:17;9.10;96.80
10459;DHT22;5277;48.722;8.736;2023-04-15T08:27:44;9.20;95.80
10459;DHT22;5277;48.722;8.736;2023-04-15T08:30:10;9.30;96.30
10459;DHT22;5277;48.722;8.736;2023-04-15T08:32:36;9.40;96.30
10459;DHT22;5277;48.722;8.736;2023-04-15T08:35:02;9.60;96.30
10459;DHT22;5277;48.722;8.736;2023-04-15T08:37:28;9.80;96.30
10459;DHT22;5277;48.722;8.736;2023-04-15T08:39:53;10.00;95.70
10459;DHT22;5277;48.722;8.736;2023-04-15T08:42:26;10.10;95.50
10459;DHT22;5277;48.722;8.736;2023-04-15T08:44:52;10.20;94.90
10459;DHT22;5277;48.722;8.736;2023-04-15T08:47:20;10.40;94.80
10459;DHT22;5277;48.722;8.736;2023-04-15T08:49:47;10.50;94.90
10459;DHT22;5277;48.722;8.736;2023-04-15T08:52:18;10.60;95.20
10459;DHT22;5277;48.722;8.736;2023-04-15T08:54:44;10.80;95.20
10459;DHT22;5277;48.722;8.736;2023-04-15T08:57:11;10.90;95.50
10459;DHT22;5277;48.722;8.736;2023-04-15T08:59:39;11.00;95.20
10459;DHT22;5277;48.722;8.736;2023-04-15T09:02:06;11.00;94.50
10459;DHT22;5277;48.722;8.736;2023-04-15T09:04:32;11.00;94.40
10459;DHT22;5277;48.722;8.736;2023-04-15T09:06:58;11.10;94.30
10459;DHT22;5277;48.722;8.736;2023-04-15T09:09:23;11.20;94.20
10459;DHT22;5277;48.722;8.736;2023-04-15T09:11:49;11.40;93.90
10459;DHT22;5277;48.722;8.736;2023-04-15T09:14:15;11.40;93.80
10459;DHT22;5277;48.722;8.736;2023-04-15T09:17:05;11.70;93.60
10459;DHT22;5277;48.722;8.736;2023-04-15T09:19:34;11.80;93.00
10459;DHT22;5277;48.722;8.736;2023-04-15T09:22:01;12.00;92.90
10459;DHT22;5277;48.722;8.736;2023-04-15T09:24:35;12.20;92.90
10459;DHT22;5277;48.722;8.736;2023-04-15T09:27:02;12.50;92.50
10459;DHT22;5277;48.722;8.736;2023-04-15T09:29:28;12.70;92.30
10459;DHT22;5277;48.722;8.736;2023-04-15T09:31:53;12.80;92.20
10459;DHT22;5277;48.722;8.736;2023-04-15T09:34:19;13.00;91.60
10459;DHT22;5277;48.722;8.736;2023-04-15T09:36:55;13.10;91.70
10459;DHT22;5277;48.722;8.736;2023-04-15T09:39:22;13.40;90.50
10459;DHT22;5277;48.722;8.736;2023-04-15T09:42:05;13.60;89.30
10459;DHT22;5277;48.722;8.736;2023-04-15T09:44:31;14.00;87.90
10459;DHT22;5277;48.722;8.736;2023-04-15T09:46:57;14.20;82.20
10459;DHT22;5277;48.722;8.736;2023-04-15T09:49:23;14.30;79.70
10459;DHT22;5277;48.722;8.736;2023-04-15T09:51:49;14.40;76.20
10459;DHT22;5277;48.722;8.736;2023-04-15T09:54:20;14.60;69.30
10459;DHT22;5277;48.722;8.736;2023-04-15T09:56:46;14.60;66.20
10459;DHT22;5277;48.722;8.736;2023-04-15T09:59:12;14.70;64.10
10459;DHT22;5277;48.722;8.736;2023-04-15T10:01:39;14.80;65.80
10459;DHT22;5277;48.722;8.736;2023-04-15T10:04:06;14.90;63.50
10459;DHT22;5277;48.722;8.736;2023-04-15T10:06:33;14.90;62.80
10459;DHT22;5277;48.722;8.736;2023-04-15T10:09:00;14.90;61.70
10459;DHT22;5277;48.722;8.736;2023-04-15T10:11:28;14.90;59.20
10459;DHT22;5277;48.722;8.736;2023-04-15T10:13:56;14.90;57.90
10459;DHT22;5277;48.722;8.736;2023-04-15T10:16:26;14.70;56.40
10459;DHT22;5277;48.722;8.736;2023-04-15T10:18:57;14.60;59.50
10459;DHT22;5277;48.722;8.736;2023-04-15T10:21:27;14.60;60.50
10459;DHT22;5277;48.722;8.736;2023-04-15T10:23:53;14.60;59.30
10459;DHT22;5277;48.722;8.736;2023-04-15T10:26:21;14.50;59.60
10459;DHT22;5277;48.722;8.736;2023-04-15T10:28:47;14.50;58.80
10459;DHT22;5277;48.722;8.736;2023-04-15T10:31:13;14.50;61.00
10459;DHT22;5277;48.722;8.736;2023-04-15T10:33:41;14.50;58.50
10459;DHT22;5277;48.722;8.736;2023-04-15T10:36:10;14.80;61.00
10459;DHT22;5277;48.722;8.736;2023-04-15T10:38:38;15.10;59.80
10459;DHT22;5277;48.722;8.736;2023-04-15T10:41:24;15.30;59.90
10459;DHT22;5277;48.722;8.736;2023-04-15T10:44:01;15.50;59.30
10459;DHT22;5277;48.722;8.736;2023-04-15T10:46:43;15.50;59.70
10459;DHT22;5277;48.722;8.736;2023-04-15T10:49:11;15.50;59.70
10459;DHT22;5277;48.722;8.736;2023-04-15T10:51:45;15.70;59.80
10459;DHT22;5277;48.722;8.736;2023-04-15T10:56:51;16.20;58.80
10459;DHT22;5277;48.722;8.736;2023-04-15T10:59:17;16.60;59.40
10459;DHT22;5277;48.722;8.736;2023-04-15T11:01:54;16.70;58.70
10459;DHT22;5277;48.722;8.736;2023-04-15T11:12:57;16.00;59.30
10459;DHT22;5277;48.722;8.736;2023-04-15T11:15:38;15.80;58.90
10459;DHT22;5277;48.722;8.736;2023-04-15T11:18:15;15.70;59.80
10459;DHT22;5277;48.722;8.736;2023-04-15T11:20:48;15.50;59.60
10459;DHT22;5277;48.722;8.736;2023-04-15T11:23:26;15.40;60.40
10459;DHT22;5277;48.722;8.736;2023-04-15T11:25:54;15.50;61.50
10459;DHT22;5277;48.722;8.736;2023-04-15T11:28:20;15.60;59.80
10459;DHT22;5277;48.722;8.736;2023-04-15T11:30:45;15.50;59.00
10459;DHT22;5277;48.722;8.736;2023-04-15T11:33:11;15.30;57.70
10459;DHT22;5277;48.722;8.736;2023-04-15T11:35:40;14.90;58.30
10459;DHT22;5277;48.722;8.736;2023-04-15T11:38:11;14.90;58.80
10459;DHT22;5277;48.722;8.736;2023-04-15T11:40:39;14.80;59.70
10459;DHT22;5277;48.722;8.736;2023-04-15T11:43:06;14.70;59.80
10459;DHT22;5277;48.722;8.736;2023-04-15T11:45:32;14.70;59.70
10459;DHT22;5277;48.722;8.736;2023-04-15T11:48:11;14.90;58.60
10459;DHT22;5277;48.722;8.736;2023-04-15T11:50:38;15.30;58.90
10459;DHT22;5277;48.722;8.736;2023-04-15T11:53:11;15.80;57.50
10459;DHT22;5277;48.722;8.736;2023-04-15T11:55:48;15.80;57.50
10459;DHT22;5277;48.722;8.736;2023-04-15T11:58:18;15.70;58.10
10459;DHT22;5277;48.722;8.736;2023-04-15T12:00:56;15.60;57.00
10459;DHT22;5277;48.722;8.736;2023-04-15T12:03:31;15.50;56.90
10459;DHT22;5277;48.722;8.736;2023-04-15T12:06:14;15.60;58.10
10459;DHT22;5277;48.722;8.736;2023-04-15T12:08:55;15.60;57.80
10459;DHT22;5277;48.722;8.736;2023-04-15T12:13:53;16.40;58.30
10459;DHT22;5277;48.722;8.736;2023-04-15T12:16:19;16.50;55.40
10459;DHT22;5277;48.722;8.736;2023-04-15T12:18:46;16.30;58.10
10459;DHT22;5277;48.722;8.736;2023-04-15T12:21:13;16.30;58.70
10459;DHT22;5277;48.722;8.736;2023-04-15T12:23:56;16.30;58.30
10459;DHT22;5277;48.722;8.736;2023-04-15T12:26:27;16.50;59.40
10459;DHT22;5277;48.722;8.736;2023-04-15T12:29:10;16.30;59.00
10459;DHT22;5277;48.722;8.736;2023-04-15T12:31:37;16.30;58.70
10459;DHT22;5277;48.722;8.736;2023-04-15T12:34:10;16.00;58.70
10459;DHT22;5277;48.722;8.736;2023-04-15T12:36:36;15.70;57.50
10459;DHT22;5277;48.722;8.736;2023-04-15T12:39:03;15.50;58.30
10459;DHT22;5277;48.722;8.736;2023-04-15T12:41:29;15.30;58.50
10459;DHT22;5277;48.722;8.736;2023-04-15T12:43:54;15.00;60.10
10459;DHT22;5277;48.722;8.736;2023-04-15T12:46:20;14.90;61.60
10459;DHT22;5277;48.722;8.736;2023-04-15T12:48:46;14.70;61.70
10459;DHT22;5277;48.722;8.736;2023-04-15T12:51:13;14.60;64.00
10459;DHT22;5277;48.722;8.736;2023-04-15T12:53:39;14.60;63.90
10459;DHT22;5277;48.722;8.736;2023-04-15T12:56:05;14.80;65.70
10459;DHT22;5277;48.722;8.736;2023-04-15T12:58:31;14.90;63.60
10459;DHT22;5277;48.722;8.736;2023-04-15T13:00:57;15.40;63.70
10459;DHT22;5277;48.722;8.736;2023-04-15T13:03:22;15.70;62.60
10459;DHT22;5277;48.722;8.736;2023-04-15T13:05:48;15.80;59.50
10459;DHT22;5277;48.722;8.736;2023-04-15T13:08:14;15.70;58.20
10459;DHT22;5277;48.722;8.736;2023-04-15T13:10:40;15.50;58.90
10459;DHT22;5277;48.722;8.736;2023-04-15T13:13:07;15.50;58.40
10459;DHT22;5277;48.722;8.736;2023-04-15T13:15:33;15.40;58.90
10459;DHT22;5277;48.722;8.736;2023-04-15T13:17:59;15.30;58.00
10459;DHT22;5277;48.722;8.736;2023-04-15T13:20:25;15.40;59.00
10459;DHT22;5277;48.722;8.736;2023-04-15T13:22:52;15.60;58.60
10459;DHT22;5277;48.722;8.736;2023-04-15T13:25:18;15.60;57.10
10459;DHT22;5277;48.722;8.736;2023-04-15T13:27:44;15.50;56.70
10459;DHT22;5277;48.722;8.736;2023-04-15T13:30:12;15.30;57.50
10459;DHT22;5277;48.722;8.736;2023-04-15T13:32:38;15.20;58.20
10459;DHT22;5277;48.722;8.736;2023-04-15T13:35:04;15.00;58.60
10459;DHT22;5277;48.722;8.736;2023-04-15T13:37:30;15.00;61.40
10459;DHT22;5277;48.722;8.736;2023-04-15T13:39:56;14.90;60.10
10459;DHT22;5277;48.722;8.736;2023-04-15T13:42:22;14.90;59.20
10459;DHT22;5277;48.722;8.736;2023-04-15T13:44:51;14.70;56.80
10459;DHT22;5277;48.722;8.736;2023-04-15T13:47:20;14.40;56.80
10459;DHT22;5277;48.722;8.736;2023-04-15T13:49:46;14.40;54.40
10459;DHT22;5277;48.722;8.736;2023-04-15T13:52:12;14.40;54.50
10459;DHT22;5277;48.722;8.736;2023-04-15T13:54:38;14.30;55.60
10459;DHT22;5277;48.722;8.736;2023-04-15T13:57:04;14.30;55.40
10459;DHT22;5277;48.722;8.736;2023-04-15T13:59:32;14.30;55.60
10459;DHT22;5277;48.722;8.736;2023-04-15T14:01:57;14.20;53.80
10459;DHT22;5277;48.722;8.736;2023-04-15T14:04:23;14.00;53.40
10459;DHT22;5277;48.722;8.736;2023-04-15T14:06:49;13.80;48.30
10459;DHT22;5277;48.722;8.736;2023-04-15T14:09:15;13.80;51.60
10459;DHT22;5277;48.722;8.736;2023-04-15T14:11:40;13.90;53.40
10459;DHT22;5277;48.722;8.736;2023-04-15T14:14:06;13.90;52.80
10459;DHT22;5277;48.722;8.736;2023-04-15T14:16:32;13.80;53.10
10459;DHT22;5277;48.722;8.736;2023-04-15T14:18:58;13.90;53.60
10459;DHT22;5277;48.722;8.736;2023-04-15T14:21:24;13.90;53.30
10459;DHT22;5277;48.722;8.736;2023-04-15T14:23:52;13.90;52.50
10459;DHT22;5277;48.722;8.736;2023-04-15T14:26:18;13.70;51.60
10459;DHT22;5277;48.722;8.736;2023-04-15T14:28:44;13.70;53.50
10459;DHT22;5277;48.722;8.736;2023-04-15T14:31:10;13.60;53.80
10459;DHT22;5277;48.722;8.736;2023-04-15T14:33:36;13.50;55.00
10459;DHT22;5277;48.722;8.736;2023-04-15T14:36:01;13.60;55.80
10459;DHT22;5277;48.722;8.736;2023-04-15T14:38:27;13.60;56.20
10459;DHT22;5277;48.722;8.736;2023-04-15T14:40:53;13.60;57.30
10459;DHT22;5277;48.722;8.736;2023-04-15T14:43:19;13.70;57.10
10459;DHT22;5277;48.722;8.736;2023-04-15T14:45:45;13.60;57.10
10459;DHT22;5277;48.722;8.736;2023-04-15T14:48:11;13.60;58.20
10459;DHT22;5277;48.722;8.736;2023-04-15T14:50:37;13.60;59.40
10459;DHT22;5277;48.722;8.736;2023-04-15T14:53:03;13.60;60.80
10459;DHT22;5277;48.722;8.736;2023-04-15T14:55:28;13.60;63.30
10459;DHT22;5277;48.722;8.736;2023-04-15T14:57:54;13.60;62.90
10459;DHT22;5277;48.722;8.736;2023-04-15T15:00:20;13.60;64.70
10459;DHT22;5277;48.722;8.736;2023-04-15T15:02:45;13.60;65.60
10459;DHT22;5277;48.722;8.736;2023-04-15T15:05:11;13.60;64.40
10459;DHT22;5277;48.722;8.736;2023-04-15T15:07:37;13.60;64.00
10459;DHT22;5277;48.722;8.736;2023-04-15T15:10:04;13.50;64.10
10459;DHT22;5277;48.722;8.736;2023-04-15T15:12:31;13.50;63.60
10459;DHT22;5277;48.722;8.736;2023-04-15T15:14:57;13.50;65.00
10459;DHT22;5277;48.722;8.736;2023-04-15T15:17:23;13.50;65.30
10459;DHT22;5277;48.722;8.736;2023-04-15T15:19:48;13.50;63.50
10459;DHT22;5277;48.722;8.736;2023-04-15T15:22:14;13.40;64.30
10459;DHT22;5277;48.722;8.736;2023-04-15T15:24:40;13.40;64.20
10459;DHT22;5277;48.722;8.736;2023-04-15T15:27:06;13.20;62.80
10459;DHT22;5277;48.722;8.736;2023-04-15T15:29:32;13.10;63.70
10459;DHT22;5277;48.722;8.736;2023-04-15T15:31:58;13.10;63.80
10459;DHT22;5277;48.722;8.736;2023-04-15T15:34:24;13.00;65.30
10459;DHT22;5277;48.722;8.736;2023-04-15T15:36:49;13.20;65.30
10459;DHT22;5277;48.722;8.736;2023-04-15T15:39:15;13.20;63.60
10459;DHT22;5277;48.722;8.736;2023-04-15T15:41:41;13.30;64.90
10459;DHT22;5277;48.722;8.736;2023-04-15T15:44:06;13.30;63.60
10459;DHT22;5277;48.722;8.736;2023-04-15T15:46:32;13.40;63.00
10459;DHT22;5277;48.722;8.736;2023-04-15T15:48:58;13.40;64.00
10459;DHT22;5277;48.722;8.736;2023-04-15T15:51:23;13.40;63.90
10459;DHT22;5277;48.722;8.736;2023-04-15T15:53:49;13.20;63.60
10459;DHT22;5277;48.722;8.736;2023-04-15T15:56:15;13.20;66.00
10459;DHT22;5277;48.722;8.736;2023-04-15T15:58:41;13.20;64.60
10459;DHT22;5277;48.722;8.736;2023-04-15T16:01:09;13.10;63.60
10459;DHT22;5277;48.722;8.736;2023-04-15T16:03:35;13.10;64.20
10459;DHT22;5277;48.722;8.736;2023-04-15T16:06:02;13.10;64.10